sensor_id;sensor_type;location;lat;lon;timestamp;P1;durP1;ratioP1;P2;durP2;ratioP2
8086;SDS011;4086;54.412;9.980;2022-11-25T00:02:21;21.37;;;13.23;;
8086;SDS011;4086;54.412;9.980;2022-11-25T00:04:47;19.43;;;13.07;;
8086;SDS011;4086;54.412;9.980;2022-11-25T00:07:13;18.83;;;12.03;;
8086;SDS011;4086;54.412;9.980;2022-11-25T00:09:41;20.43;;;12.43;;
8086;SDS011;4086;54.412;9.980;2022-11-25T00:12:07;21.70;;;12.40;;
8086;SDS011;4086;54.412;9.980;2022-11-25T00:14:35;21.40;;;12.23;;
8086;SDS011;4086;54.412;9.980;2022-11-25T00:17:01;17.47;;;11.60;;
8086;SDS011;4086;54.412;9.980;2022-11-25T00:19:28;20.37;;;12.37;;
8086;SDS011;4086;54.412;9.980;2022-11-25T00:21:54;20.60;;;11.93;;
8086;SDS011;4086;54.412;9.980;2022-11-25T00:24:21;19.50;;;12.10;;
8086;SDS011;4086;54.412;9.980;2022-11-25T00:26:47;20.73;;;12.87;;
8086;SDS011;4086;54.412;9.980;2022-11-25T00:29:14;18.33;;;11.20;;
8086;SDS011;4086;54.412;9.980;2022-11-25T00:31:41;21.53;;;11.87;;
8086;SDS011;4086;54.412;9.980;2022-11-25T00:34:09;20.17;;;12.80;;
8086;SDS011;4086;54.412;9.980;2022-11-25T00:36:37;23.30;;;12.23;;
8086;SDS011;4086;54.412;9.980;2022-11-25T00:39:04;20.27;;;11.97;;
8086;SDS011;4086;54.412;9.980;2022-11-25T00:41:32;20.03;;;12.17;;
8086;SDS011;4086;54.412;9.980;2022-11-25T00:44:16;19.90;;;12.03;;
8086;SDS011;4086;54.412;9.980;2022-11-25T00:47:05;23.83;;;12.27;;
8086;SDS011;4086;54.412;9.980;2022-11-25T00:49:33;20.33;;;12.53;;
8086;SDS011;4086;54.412;9.980;2022-11-25T00:52:00;20.87;;;12.50;;
8086;SDS011;4086;54.412;9.980;2022-11-25T00:54:27;18.77;;;12.13;;
8086;SDS011;4086;54.412;9.980;2022-11-25T00:56:54;26.37;;;12.87;;
8086;SDS011;4086;54.412;9.980;2022-11-25T00:59:20;18.60;;;11.53;;
8086;SDS011;4086;54.412;9.980;2022-11-25T01:01:46;19.00;;;12.17;;
8086;SDS011;4086;54.412;9.980;2022-11-25T01:04:14;25.43;;;11.90;;
8086;SDS011;4086;54.412;9.980;2022-11-25T01:06:41;25.57;;;11.53;;
8086;SDS011;4086;54.412;9.980;2022-11-25T01:09:09;40.27;;;10.93;;
8086;SDS011;4086;54.412;9.980;2022-11-25T01:11:36;23.10;;;11.10;;
8086;SDS011;4086;54.412;9.980;2022-11-25T01:14:03;23.93;;;11.57;;
8086;SDS011;4086;54.412;9.980;2022-11-25T01:16:29;45.53;;;11.27;;
8086;SDS011;4086;54.412;9.980;2022-11-25T01:18:56;42.57;;;11.20;;
8086;SDS011;4086;54.412;9.980;2022-11-25T01:21:25;21.93;;;12.17;;
8086;SDS011;4086;54.412;9.980;2022-11-25T01:23:52;29.23;;;11.10;;
8086;SDS011;4086;54.412;9.980;2022-11-25T01:26:19;17.10;;;11.37;;
8086;SDS011;4086;54.412;9.980;2022-11-25T01:28:49;32.03;;;11.77;;
8086;SDS011;4086;54.412;9.980;2022-11-25T01:31:19;17.37;;;10.43;;
8086;SDS011;4086;54.412;9.980;2022-11-25T01:33:50;39.27;;;11.80;;
8086;SDS011;4086;54.412;9.980;2022-11-25T01:36:18;18.83;;;10.53;;
8086;SDS011;4086;54.412;9.980;2022-11-25T01:38:48;22.73;;;11.53;;
8086;SDS011;4086;54.412;9.980;2022-11-25T01:41:15;23.47;;;11.47;;
8086;SDS011;4086;54.412;9.980;2022-11-25T01:43:41;25.00;;;11.70;;
8086;SDS011;4086;54.412;9.980;2022-11-25T01:46:08;27.60;;;11.77;;
8086;SDS011;4086;54.412;9.980;2022-11-25T01:48:38;16.03;;;10.43;;
8086;SDS011;4086;54.412;9.980;2022-11-25T01:51:10;21.00;;;11.40;;
8086;SDS011;4086;54.412;9.980;2022-11-25T01:53:43;23.10;;;11.43;;
8086;SDS011;4086;54.412;9.980;2022-11-25T01:56:10;19.00;;;11.80;;
8086;SDS011;4086;54.412;9.980;2022-11-25T01:58:37;26.90;;;12.83;;
8086;SDS011;4086;54.412;9.980;2022-11-25T02:01:03;32.97;;;12.73;;
8086;SDS011;4086;54.412;9.980;2022-11-25T02:03:30;24.80;;;12.20;;
8086;SDS011;4086;54.412;9.980;2022-11-25T02:06:01;17.80;;;11.57;;
8086;SDS011;4086;54.412;9.980;2022-11-25T02:08:31;20.70;;;12.33;;
8086;SDS011;4086;54.412;9.980;2022-11-25T02:10:58;20.53;;;11.63;;
8086;SDS011;4086;54.412;9.980;2022-11-25T02:13:31;29.60;;;12.80;;
8086;SDS011;4086;54.412;9.980;2022-11-25T02:15:57;24.80;;;12.07;;
8086;SDS011;4086;54.412;9.980;2022-11-25T02:18:24;34.07;;;11.57;;
8086;SDS011;4086;54.412;9.980;2022-11-25T02:20:51;22.47;;;12.10;;
8086;SDS011;4086;54.412;9.980;2022-11-25T02:23:18;24.70;;;12.10;;
8086;SDS011;4086;54.412;9.980;2022-11-25T02:25:51;24.67;;;12.70;;
8086;SDS011;4086;54.412;9.980;2022-11-25T02:28:19;36.90;;;13.57;;
8086;SDS011;4086;54.412;9.980;2022-11-25T02:30:47;26.70;;;13.83;;
8086;SDS011;4086;54.412;9.980;2022-11-25T02:33:13;27.53;;;13.97;;
8086;SDS011;4086;54.412;9.980;2022-11-25T02:35:41;33.53;;;11.97;;
8086;SDS011;4086;54.412;9.980;2022-11-25T02:38:09;26.27;;;14.10;;
8086;SDS011;4086;54.412;9.980;2022-11-25T02:40:39;23.43;;;12.77;;
8086;SDS011;4086;54.412;9.980;2022-11-25T02:43:10;31.77;;;13.73;;
8086;SDS011;4086;54.412;9.980;2022-11-25T02:45:42;27.70;;;13.10;;
8086;SDS011;4086;54.412;9.980;2022-11-25T02:48:13;30.50;;;12.67;;
8086;SDS011;4086;54.412;9.980;2022-11-25T02:50:40;29.27;;;12.77;;
8086;SDS011;4086;54.412;9.980;2022-11-25T02:53:06;25.60;;;13.60;;
8086;SDS011;4086;54.412;9.980;2022-11-25T02:55:33;30.30;;;12.70;;
8086;SDS011;4086;54.412;9.980;2022-11-25T02:57:59;28.83;;;13.80;;
8086;SDS011;4086;54.412;9.980;2022-11-25T03:00:27;26.93;;;13.47;;
8086;SDS011;4086;54.412;9.980;2022-11-25T03:02:54;31.23;;;13.50;;
8086;SDS011;4086;54.412;9.980;2022-11-25T03:05:21;24.87;;;12.57;;
8086;SDS011;4086;54.412;9.980;2022-11-25T03:07:47;42.43;;;14.60;;
8086;SDS011;4086;54.412;9.980;2022-11-25T03:10:14;25.33;;;12.97;;
8086;SDS011;4086;54.412;9.980;2022-11-25T03:12:40;28.73;;;14.67;;
8086;SDS011;4086;54.412;9.980;2022-11-25T03:15:07;29.40;;;13.83;;
8086;SDS011;4086;54.412;9.980;2022-11-25T03:17:36;30.97;;;16.10;;
8086;SDS011;4086;54.412;9.980;2022-11-25T03:20:02;28.90;;;14.03;;
8086;SDS011;4086;54.412;9.980;2022-11-25T03:22:29;26.40;;;14.03;;
8086;SDS011;4086;54.412;9.980;2022-11-25T03:24:56;25.57;;;14.00;;
8086;SDS011;4086;54.412;9.980;2022-11-25T03:27:22;29.00;;;14.53;;
8086;SDS011;4086;54.412;9.980;2022-11-25T03:29:50;29.40;;;15.27;;
8086;SDS011;4086;54.412;9.980;2022-11-25T03:32:16;26.50;;;14.37;;
8086;SDS011;4086;54.412;9.980;2022-11-25T03:34:45;25.50;;;13.03;;
8086;SDS011;4086;54.412;9.980;2022-11-25T03:37:13;26.23;;;12.50;;
8086;SDS011;4086;54.412;9.980;2022-11-25T03:39:39;27.07;;;13.57;;
8086;SDS011;4086;54.412;9.980;2022-11-25T03:42:06;20.43;;;12.63;;
8086;SDS011;4086;54.412;9.980;2022-11-25T03:44:32;23.73;;;12.57;;
8086;SDS011;4086;54.412;9.980;2022-11-25T03:46:59;27.47;;;12.40;;
8086;SDS011;4086;54.412;9.980;2022-11-25T03:49:25;25.10;;;13.27;;
8086;SDS011;4086;54.412;9.980;2022-11-25T03:51:53;23.17;;;12.40;;
8086;SDS011;4086;54.412;9.980;2022-11-25T03:54:19;20.57;;;12.37;;
8086;SDS011;4086;54.412;9.980;2022-11-25T03:56:46;25.97;;;13.00;;
8086;SDS011;4086;54.412;9.980;2022-11-25T03:59:12;24.73;;;12.70;;
8086;SDS011;4086;54.412;9.980;2022-11-25T04:01:38;21.77;;;12.13;;
8086;SDS011;4086;54.412;9.980;2022-11-25T04:04:05;23.67;;;12.13;;
8086;SDS011;4086;54.412;9.980;2022-11-25T04:06:32;24.17;;;12.63;;
8086;SDS011;4086;54.412;9.980;2022-11-25T04:08:59;23.53;;;11.80;;
8086;SDS011;4086;54.412;9.980;2022-11-25T04:11:26;22.73;;;12.93;;
8086;SDS011;4086;54.412;9.980;2022-11-25T04:14:12;24.00;;;13.10;;
8086;SDS011;4086;54.412;9.980;2022-11-25T04:16:38;26.27;;;13.90;;
8086;SDS011;4086;54.412;9.980;2022-11-25T04:19:04;23.93;;;13.80;;
8086;SDS011;4086;54.412;9.980;2022-11-25T04:21:31;24.87;;;13.17;;
8086;SDS011;4086;54.412;9.980;2022-11-25T04:23:57;28.17;;;13.57;;
8086;SDS011;4086;54.412;9.980;2022-11-25T04:26:25;25.37;;;12.97;;
8086;SDS011;4086;54.412;9.980;2022-11-25T04:28:51;34.00;;;13.93;;
8086;SDS011;4086;54.412;9.980;2022-11-25T04:31:18;26.53;;;12.93;;
8086;SDS011;4086;54.412;9.980;2022-11-25T04:33:45;23.47;;;12.77;;
8086;SDS011;4086;54.412;9.980;2022-11-25T04:36:12;21.90;;;12.60;;
8086;SDS011;4086;54.412;9.980;2022-11-25T04:38:38;24.17;;;12.37;;
8086;SDS011;4086;54.412;9.980;2022-11-25T04:41:05;20.30;;;11.77;;
8086;SDS011;4086;54.412;9.980;2022-11-25T04:43:33;26.37;;;12.77;;
8086;SDS011;4086;54.412;9.980;2022-11-25T04:45:59;24.50;;;12.40;;
8086;SDS011;4086;54.412;9.980;2022-11-25T04:48:26;21.50;;;12.03;;
8086;SDS011;4086;54.412;9.980;2022-11-25T04:50:53;21.30;;;12.13;;
8086;SDS011;4086;54.412;9.980;2022-11-25T04:53:19;23.70;;;12.70;;
8086;SDS011;4086;54.412;9.980;2022-11-25T04:55:45;26.07;;;12.63;;
8086;SDS011;4086;54.412;9.980;2022-11-25T04:58:12;24.40;;;13.73;;
8086;SDS011;4086;54.412;9.980;2022-11-25T05:01:00;21.60;;;12.73;;
8086;SDS011;4086;54.412;9.980;2022-11-25T05:03:26;27.27;;;14.00;;
8086;SDS011;4086;54.412;9.980;2022-11-25T05:05:52;27.07;;;13.17;;
8086;SDS011;4086;54.412;9.980;2022-11-25T05:08:18;22.50;;;13.50;;
8086;SDS011;4086;54.412;9.980;2022-11-25T05:10:45;26.90;;;13.40;;
8086;SDS011;4086;54.412;9.980;2022-11-25T05:13:11;22.93;;;13.27;;
8086;SDS011;4086;54.412;9.980;2022-11-25T05:15:37;22.17;;;12.50;;
8086;SDS011;4086;54.412;9.980;2022-11-25T05:18:05;22.90;;;13.00;;
8086;SDS011;4086;54.412;9.980;2022-11-25T05:20:31;23.17;;;12.40;;
8086;SDS011;4086;54.412;9.980;2022-11-25T05:22:59;22.37;;;12.77;;
8086;SDS011;4086;54.412;9.980;2022-11-25T05:25:25;21.33;;;12.93;;
8086;SDS011;4086;54.412;9.980;2022-11-25T05:27:51;24.80;;;11.17;;
8086;SDS011;4086;54.412;9.980;2022-11-25T05:30:18;21.83;;;12.03;;
8086;SDS011;4086;54.412;9.980;2022-11-25T05:32:44;23.10;;;12.50;;
8086;SDS011;4086;54.412;9.980;2022-11-25T05:35:12;21.37;;;12.33;;
8086;SDS011;4086;54.412;9.980;2022-11-25T05:37:39;22.20;;;11.13;;
8086;SDS011;4086;54.412;9.980;2022-11-25T05:40:06;21.70;;;11.87;;
8086;SDS011;4086;54.412;9.980;2022-11-25T05:42:33;22.63;;;11.37;;
8086;SDS011;4086;54.412;9.980;2022-11-25T05:44:59;22.50;;;12.50;;
8086;SDS011;4086;54.412;9.980;2022-11-25T05:47:26;22.73;;;11.83;;
8086;SDS011;4086;54.412;9.980;2022-11-25T05:49:52;21.73;;;12.30;;
8086;SDS011;4086;54.412;9.980;2022-11-25T05:52:20;21.83;;;11.13;;
8086;SDS011;4086;54.412;9.980;2022-11-25T05:54:47;25.03;;;11.67;;
8086;SDS011;4086;54.412;9.980;2022-11-25T05:57:13;27.17;;;11.23;;
8086;SDS011;4086;54.412;9.980;2022-11-25T05:59:40;24.43;;;12.17;;
8086;SDS011;4086;54.412;9.980;2022-11-25T06:02:07;29.13;;;11.77;;
8086;SDS011;4086;54.412;9.980;2022-11-25T06:04:33;23.17;;;11.20;;
8086;SDS011;4086;54.412;9.980;2022-11-25T06:06:59;24.50;;;12.23;;
8086;SDS011;4086;54.412;9.980;2022-11-25T06:09:27;25.40;;;11.07;;
8086;SDS011;4086;54.412;9.980;2022-11-25T06:11:53;24.20;;;12.00;;
8086;SDS011;4086;54.412;9.980;2022-11-25T06:14:20;21.40;;;10.53;;
8086;SDS011;4086;54.412;9.980;2022-11-25T06:16:46;25.63;;;11.90;;
8086;SDS011;4086;54.412;9.980;2022-11-25T06:19:13;23.23;;;10.70;;
8086;SDS011;4086;54.412;9.980;2022-11-25T06:21:39;24.53;;;12.00;;
8086;SDS011;4086;54.412;9.980;2022-11-25T06:24:06;24.20;;;11.60;;
8086;SDS011;4086;54.412;9.980;2022-11-25T06:26:33;28.37;;;12.33;;
8086;SDS011;4086;54.412;9.980;2022-11-25T06:29:00;26.80;;;11.93;;
8086;SDS011;4086;54.412;9.980;2022-11-25T06:31:26;23.23;;;11.67;;
8086;SDS011;4086;54.412;9.980;2022-11-25T06:33:53;28.27;;;12.43;;
8086;SDS011;4086;54.412;9.980;2022-11-25T06:36:20;25.47;;;11.57;;
8086;SDS011;4086;54.412;9.980;2022-11-25T06:38:47;22.73;;;11.40;;
8086;SDS011;4086;54.412;9.980;2022-11-25T06:41:15;22.40;;;11.33;;
8086;SDS011;4086;54.412;9.980;2022-11-25T06:43:43;26.10;;;12.43;;
8086;SDS011;4086;54.412;9.980;2022-11-25T06:46:10;27.30;;;11.37;;
8086;SDS011;4086;54.412;9.980;2022-11-25T06:48:38;22.83;;;10.63;;
8086;SDS011;4086;54.412;9.980;2022-11-25T06:51:05;23.03;;;12.07;;
8086;SDS011;4086;54.412;9.980;2022-11-25T06:53:33;23.80;;;11.70;;
8086;SDS011;4086;54.412;9.980;2022-11-25T06:56:03;23.63;;;12.50;;
8086;SDS011;4086;54.412;9.980;2022-11-25T06:58:31;30.07;;;12.57;;
8086;SDS011;4086;54.412;9.980;2022-11-25T07:01:02;24.40;;;11.73;;
8086;SDS011;4086;54.412;9.980;2022-11-25T07:03:29;26.00;;;11.33;;
8086;SDS011;4086;54.412;9.980;2022-11-25T07:05:56;23.47;;;11.67;;
8086;SDS011;4086;54.412;9.980;2022-11-25T07:08:23;23.97;;;11.47;;
8086;SDS011;4086;54.412;9.980;2022-11-25T07:10:49;25.57;;;12.60;;
8086;SDS011;4086;54.412;9.980;2022-11-25T07:13:16;27.17;;;11.80;;
8086;SDS011;4086;54.412;9.980;2022-11-25T07:15:42;24.10;;;11.77;;
8086;SDS011;4086;54.412;9.980;2022-11-25T07:18:10;24.63;;;11.10;;
8086;SDS011;4086;54.412;9.980;2022-11-25T07:20:37;23.43;;;11.27;;
8086;SDS011;4086;54.412;9.980;2022-11-25T07:23:03;23.27;;;11.23;;
8086;SDS011;4086;54.412;9.980;2022-11-25T07:25:31;21.93;;;11.13;;
8086;SDS011;4086;54.412;9.980;2022-11-25T07:27:58;20.77;;;10.03;;
8086;SDS011;4086;54.412;9.980;2022-11-25T07:30:24;21.37;;;10.00;;
8086;SDS011;4086;54.412;9.980;2022-11-25T07:32:50;20.70;;;10.03;;
8086;SDS011;4086;54.412;9.980;2022-11-25T07:35:18;21.67;;;10.07;;
8086;SDS011;4086;54.412;9.980;2022-11-25T07:37:45;20.60;;;9.80;;
8086;SDS011;4086;54.412;9.980;2022-11-25T07:40:11;21.17;;;9.57;;
8086;SDS011;4086;54.412;9.980;2022-11-25T07:42:38;19.27;;;9.57;;
8086;SDS011;4086;54.412;9.980;2022-11-25T07:45:05;22.27;;;9.60;;
8086;SDS011;4086;54.412;9.980;2022-11-25T07:47:32;23.43;;;10.57;;
8086;SDS011;4086;54.412;9.980;2022-11-25T07:49:59;21.00;;;9.97;;
8086;SDS011;4086;54.412;9.980;2022-11-25T07:52:26;19.27;;;9.23;;
8086;SDS011;4086;54.412;9.980;2022-11-25T07:54:53;17.53;;;9.70;;
8086;SDS011;4086;54.412;9.980;2022-11-25T07:57:19;22.10;;;9.80;;
8086;SDS011;4086;54.412;9.980;2022-11-25T07:59:45;18.67;;;9.03;;
8086;SDS011;4086;54.412;9.980;2022-11-25T08:02:12;17.07;;;8.43;;
8086;SDS011;4086;54.412;9.980;2022-11-25T08:04:38;16.73;;;8.87;;
8086;SDS011;4086;54.412;9.980;2022-11-25T08:07:04;17.57;;;8.87;;
8086;SDS011;4086;54.412;9.980;2022-11-25T08:09:32;15.80;;;7.97;;
8086;SDS011;4086;54.412;9.980;2022-11-25T08:11:59;14.70;;;8.47;;
8086;SDS011;4086;54.412;9.980;2022-11-25T08:14:25;16.20;;;8.87;;
8086;SDS011;4086;54.412;9.980;2022-11-25T08:16:51;15.07;;;8.57;;
8086;SDS011;4086;54.412;9.980;2022-11-25T08:19:18;14.87;;;9.00;;
8086;SDS011;4086;54.412;9.980;2022-11-25T08:21:44;17.13;;;8.90;;
8086;SDS011;4086;54.412;9.980;2022-11-25T08:24:12;16.37;;;8.77;;
8086;SDS011;4086;54.412;9.980;2022-11-25T08:26:41;16.03;;;8.77;;
8086;SDS011;4086;54.412;9.980;2022-11-25T08:29:09;14.37;;;8.37;;
8086;SDS011;4086;54.412;9.980;2022-11-25T08:31:37;14.93;;;8.50;;
8086;SDS011;4086;54.412;9.980;2022-11-25T08:34:04;13.07;;;8.03;;
8086;SDS011;4086;54.412;9.980;2022-11-25T08:36:32;12.27;;;7.03;;
8086;SDS011;4086;54.412;9.980;2022-11-25T08:38:59;13.13;;;7.93;;
8086;SDS011;4086;54.412;9.980;2022-11-25T08:41:28;15.20;;;8.67;;
8086;SDS011;4086;54.412;9.980;2022-11-25T08:43:58;12.07;;;7.70;;
8086;SDS011;4086;54.412;9.980;2022-11-25T08:46:26;12.03;;;7.83;;
8086;SDS011;4086;54.412;9.980;2022-11-25T08:48:54;12.30;;;6.90;;
8086;SDS011;4086;54.412;9.980;2022-11-25T08:51:21;12.27;;;6.93;;
8086;SDS011;4086;54.412;9.980;2022-11-25T08:53:49;12.93;;;7.43;;
8086;SDS011;4086;54.412;9.980;2022-11-25T08:56:16;11.37;;;7.33;;
8086;SDS011;4086;54.412;9.980;2022-11-25T08:58:43;12.47;;;7.13;;
8086;SDS011;4086;54.412;9.980;2022-11-25T09:01:11;12.20;;;6.90;;
8086;SDS011;4086;54.412;9.980;2022-11-25T09:03:40;12.00;;;7.13;;
8086;SDS011;4086;54.412;9.980;2022-11-25T09:06:08;11.40;;;6.37;;
8086;SDS011;4086;54.412;9.980;2022-11-25T09:08:34;13.40;;;7.13;;
8086;SDS011;4086;54.412;9.980;2022-11-25T09:11:03;9.03;;;6.70;;
8086;SDS011;4086;54.412;9.980;2022-11-25T09:13:29;11.03;;;6.20;;
8086;SDS011;4086;54.412;9.980;2022-11-25T09:15:56;11.63;;;6.80;;
8086;SDS011;4086;54.412;9.980;2022-11-25T09:18:24;14.67;;;7.13;;
8086;SDS011;4086;54.412;9.980;2022-11-25T09:20:50;9.60;;;6.70;;
8086;SDS011;4086;54.412;9.980;2022-11-25T09:23:17;11.23;;;7.13;;
8086;SDS011;4086;54.412;9.980;2022-11-25T09:25:49;9.43;;;6.30;;
8086;SDS011;4086;54.412;9.980;2022-11-25T09:28:16;9.40;;;7.03;;
8086;SDS011;4086;54.412;9.980;2022-11-25T09:30:42;10.50;;;6.30;;
8086;SDS011;4086;54.412;9.980;2022-11-25T09:33:08;10.20;;;7.03;;
8086;SDS011;4086;54.412;9.980;2022-11-25T09:35:36;12.33;;;6.63;;
8086;SDS011;4086;54.412;9.980;2022-11-25T09:38:03;12.90;;;7.27;;
8086;SDS011;4086;54.412;9.980;2022-11-25T09:40:31;11.03;;;6.70;;
8086;SDS011;4086;54.412;9.980;2022-11-25T09:43:02;12.97;;;7.17;;
8086;SDS011;4086;54.412;9.980;2022-11-25T09:45:52;12.20;;;7.23;;
8086;SDS011;4086;54.412;9.980;2022-11-25T09:48:43;9.87;;;6.47;;
8086;SDS011;4086;54.412;9.980;2022-11-25T09:51:19;10.27;;;6.80;;
8086;SDS011;4086;54.412;9.980;2022-11-25T09:53:49;11.23;;;6.97;;
8086;SDS011;4086;54.412;9.980;2022-11-25T09:56:24;9.63;;;6.57;;
8086;SDS011;4086;54.412;9.980;2022-11-25T09:58:55;12.73;;;7.17;;
8086;SDS011;4086;54.412;9.980;2022-11-25T10:01:26;13.53;;;7.30;;
8086;SDS011;4086;54.412;9.980;2022-11-25T10:03:55;10.70;;;6.87;;
8086;SDS011;4086;54.412;9.980;2022-11-25T10:06:27;12.53;;;6.67;;
8086;SDS011;4086;54.412;9.980;2022-11-25T10:08:55;13.60;;;7.07;;
8086;SDS011;4086;54.412;9.980;2022-11-25T10:11:25;13.10;;;7.00;;
8086;SDS011;4086;54.412;9.980;2022-11-25T10:13:56;10.83;;;7.40;;
8086;SDS011;4086;54.412;9.980;2022-11-25T10:16:28;11.27;;;6.97;;
8086;SDS011;4086;54.412;9.980;2022-11-25T10:18:58;12.63;;;7.17;;
8086;SDS011;4086;54.412;9.980;2022-11-25T10:21:27;13.07;;;6.40;;
8086;SDS011;4086;54.412;9.980;2022-11-25T10:23:53;12.00;;;7.43;;
8086;SDS011;4086;54.412;9.980;2022-11-25T10:26:20;11.73;;;7.83;;
8086;SDS011;4086;54.412;9.980;2022-11-25T10:28:50;12.23;;;7.47;;
8086;SDS011;4086;54.412;9.980;2022-11-25T10:31:21;11.53;;;6.63;;
8086;SDS011;4086;54.412;9.980;2022-11-25T10:33:51;13.30;;;7.50;;
8086;SDS011;4086;54.412;9.980;2022-11-25T10:36:19;11.77;;;6.10;;
8086;SDS011;4086;54.412;9.980;2022-11-25T10:38:51;12.90;;;7.70;;
8086;SDS011;4086;54.412;9.980;2022-11-25T10:41:21;11.43;;;6.80;;
8086;SDS011;4086;54.412;9.980;2022-11-25T10:43:49;11.80;;;7.57;;
8086;SDS011;4086;54.412;9.980;2022-11-25T10:46:18;9.80;;;6.40;;
8086;SDS011;4086;54.412;9.980;2022-11-25T10:48:52;12.50;;;6.67;;
8086;SDS011;4086;54.412;9.980;2022-11-25T10:51:29;18.47;;;7.07;;
8086;SDS011;4086;54.412;9.980;2022-11-25T10:54:13;10.00;;;6.77;;
8086;SDS011;4086;54.412;9.980;2022-11-25T10:56:42;11.37;;;6.60;;
8086;SDS011;4086;54.412;9.980;2022-11-25T10:59:13;10.37;;;5.90;;
8086;SDS011;4086;54.412;9.980;2022-11-25T11:01:40;14.30;;;7.63;;
8086;SDS011;4086;54.412;9.980;2022-11-25T11:04:10;12.10;;;6.47;;
8086;SDS011;4086;54.412;9.980;2022-11-25T11:06:39;15.40;;;6.23;;
8086;SDS011;4086;54.412;9.980;2022-11-25T11:09:10;11.20;;;7.07;;
8086;SDS011;4086;54.412;9.980;2022-11-25T11:11:57;10.57;;;6.53;;
8086;SDS011;4086;54.412;9.980;2022-11-25T11:14:33;11.23;;;6.40;;
8086;SDS011;4086;54.412;9.980;2022-11-25T11:16:59;17.40;;;7.80;;
8086;SDS011;4086;54.412;9.980;2022-11-25T11:19:27;9.83;;;6.50;;
8086;SDS011;4086;54.412;9.980;2022-11-25T11:21:55;10.77;;;6.63;;
8086;SDS011;4086;54.412;9.980;2022-11-25T11:24:23;13.10;;;6.57;;
8086;SDS011;4086;54.412;9.980;2022-11-25T11:27:01;12.67;;;6.77;;
8086;SDS011;4086;54.412;9.980;2022-11-25T11:29:29;10.37;;;6.40;;
8086;SDS011;4086;54.412;9.980;2022-11-25T11:31:57;11.97;;;6.77;;
8086;SDS011;4086;54.412;9.980;2022-11-25T11:37:30;12.57;;;6.40;;
8086;SDS011;4086;54.412;9.980;2022-11-25T11:40:08;10.37;;;6.33;;
8086;SDS011;4086;54.412;9.980;2022-11-25T11:42:47;9.87;;;6.27;;
8086;SDS011;4086;54.412;9.980;2022-11-25T11:45:34;10.00;;;6.30;;
8086;SDS011;4086;54.412;9.980;2022-11-25T11:48:09;9.33;;;6.70;;
8086;SDS011;4086;54.412;9.980;2022-11-25T11:50:38;7.97;;;6.03;;
8086;SDS011;4086;54.412;9.980;2022-11-25T11:53:09;10.37;;;6.03;;
8086;SDS011;4086;54.412;9.980;2022-11-25T11:55:47;10.50;;;6.40;;
8086;SDS011;4086;54.412;9.980;2022-11-25T11:58:27;12.73;;;6.40;;
8086;SDS011;4086;54.412;9.980;2022-11-25T12:01:05;10.90;;;6.37;;
8086;SDS011;4086;54.412;9.980;2022-11-25T12:03:35;8.90;;;6.30;;
8086;SDS011;4086;54.412;9.980;2022-11-25T12:06:04;11.83;;;6.13;;
8086;SDS011;4086;54.412;9.980;2022-11-25T12:08:32;13.00;;;6.47;;
8086;SDS011;4086;54.412;9.980;2022-11-25T12:11:03;13.73;;;6.13;;
8086;SDS011;4086;54.412;9.980;2022-11-25T12:13:38;9.93;;;6.27;;
8086;SDS011;4086;54.412;9.980;2022-11-25T12:16:09;11.90;;;6.20;;
8086;SDS011;4086;54.412;9.980;2022-11-25T12:18:40;10.20;;;6.23;;
8086;SDS011;4086;54.412;9.980;2022-11-25T12:21:12;9.07;;;6.33;;
8086;SDS011;4086;54.412;9.980;2022-11-25T12:23:49;8.63;;;6.67;;
8086;SDS011;4086;54.412;9.980;2022-11-25T12:26:21;8.30;;;6.70;;
8086;SDS011;4086;54.412;9.980;2022-11-25T12:28:52;10.60;;;6.17;;
8086;SDS011;4086;54.412;9.980;2022-11-25T12:31:23;10.27;;;6.23;;
8086;SDS011;4086;54.412;9.980;2022-11-25T12:33:52;9.80;;;6.63;;
8086;SDS011;4086;54.412;9.980;2022-11-25T12:36:26;9.87;;;6.00;;
8086;SDS011;4086;54.412;9.980;2022-11-25T12:38:55;11.67;;;7.07;;
8086;SDS011;4086;54.412;9.980;2022-11-25T12:41:27;11.43;;;6.83;;
8086;SDS011;4086;54.412;9.980;2022-11-25T12:43:59;11.77;;;6.83;;
8086;SDS011;4086;54.412;9.980;2022-11-25T12:46:32;10.27;;;6.60;;
8086;SDS011;4086;54.412;9.980;2022-11-25T12:49:00;10.53;;;7.30;;
8086;SDS011;4086;54.412;9.980;2022-11-25T12:51:42;8.63;;;6.63;;
8086;SDS011;4086;54.412;9.980;2022-11-25T12:54:23;9.13;;;6.50;;
8086;SDS011;4086;54.412;9.980;2022-11-25T12:57:17;13.37;;;7.33;;
8086;SDS011;4086;54.412;9.980;2022-11-25T12:59:54;9.03;;;6.27;;
8086;SDS011;4086;54.412;9.980;2022-11-25T13:02:34;9.13;;;6.57;;
8086;SDS011;4086;54.412;9.980;2022-11-25T13:05:24;10.97;;;6.57;;
8086;SDS011;4086;54.412;9.980;2022-11-25T13:08:03;9.77;;;6.23;;
8086;SDS011;4086;54.412;9.980;2022-11-25T13:10:42;8.53;;;6.63;;
8086;SDS011;4086;54.412;9.980;2022-11-25T13:13:23;11.07;;;6.57;;
8086;SDS011;4086;54.412;9.980;2022-11-25T13:15:57;9.07;;;6.17;;
8086;SDS011;4086;54.412;9.980;2022-11-25T13:18:24;8.50;;;5.90;;
8086;SDS011;4086;54.412;9.980;2022-11-25T13:20:52;9.53;;;6.50;;
8086;SDS011;4086;54.412;9.980;2022-11-25T13:23:43;8.73;;;6.17;;
8086;SDS011;4086;54.412;9.980;2022-11-25T13:29:04;11.30;;;7.33;;
8086;SDS011;4086;54.412;9.980;2022-11-25T13:31:34;8.43;;;6.40;;
8086;SDS011;4086;54.412;9.980;2022-11-25T13:34:24;12.33;;;6.97;;
8086;SDS011;4086;54.412;9.980;2022-11-25T13:36:53;10.63;;;7.70;;
8086;SDS011;4086;54.412;9.980;2022-11-25T13:39:27;11.47;;;7.53;;
8086;SDS011;4086;54.412;9.980;2022-11-25T13:41:58;9.03;;;6.57;;
8086;SDS011;4086;54.412;9.980;2022-11-25T13:44:28;11.53;;;7.13;;
8086;SDS011;4086;54.412;9.980;2022-11-25T13:46:58;10.07;;;7.57;;
8086;SDS011;4086;54.412;9.980;2022-11-25T13:49:34;9.20;;;6.60;;
8086;SDS011;4086;54.412;9.980;2022-11-25T13:52:21;12.10;;;7.97;;
8086;SDS011;4086;54.412;9.980;2022-11-25T13:54:55;10.77;;;7.40;;
8086;SDS011;4086;54.412;9.980;2022-11-25T13:57:23;12.90;;;7.67;;
8086;SDS011;4086;54.412;9.980;2022-11-25T13:59:52;15.87;;;7.67;;
8086;SDS011;4086;54.412;9.980;2022-11-25T14:02:27;12.37;;;8.17;;
8086;SDS011;4086;54.412;9.980;2022-11-25T14:04:58;12.77;;;8.87;;
8086;SDS011;4086;54.412;9.980;2022-11-25T14:07:31;11.70;;;8.10;;
8086;SDS011;4086;54.412;9.980;2022-11-25T14:10:12;10.57;;;8.23;;
8086;SDS011;4086;54.412;9.980;2022-11-25T14:13:10;11.87;;;8.00;;
8086;SDS011;4086;54.412;9.980;2022-11-25T14:15:46;14.13;;;8.13;;
8086;SDS011;4086;54.412;9.980;2022-11-25T14:18:25;13.17;;;8.53;;
8086;SDS011;4086;54.412;9.980;2022-11-25T14:20:58;11.93;;;8.20;;
8086;SDS011;4086;54.412;9.980;2022-11-25T14:23:34;13.13;;;8.67;;
8086;SDS011;4086;54.412;9.980;2022-11-25T14:26:19;12.03;;;9.27;;
8086;SDS011;4086;54.412;9.980;2022-11-25T14:28:52;13.90;;;9.30;;
8086;SDS011;4086;54.412;9.980;2022-11-25T14:31:22;13.70;;;9.17;;
8086;SDS011;4086;54.412;9.980;2022-11-25T14:33:54;14.63;;;9.40;;
8086;SDS011;4086;54.412;9.980;2022-11-25T14:36:23;15.80;;;9.13;;
8086;SDS011;4086;54.412;9.980;2022-11-25T14:38:52;14.90;;;10.23;;
8086;SDS011;4086;54.412;9.980;2022-11-25T14:41:21;14.90;;;9.93;;
8086;SDS011;4086;54.412;9.980;2022-11-25T14:43:49;14.07;;;9.93;;
8086;SDS011;4086;54.412;9.980;2022-11-25T14:46:20;14.47;;;9.47;;
8086;SDS011;4086;54.412;9.980;2022-11-25T14:48:51;13.47;;;9.33;;
8086;SDS011;4086;54.412;9.980;2022-11-25T14:51:20;16.50;;;9.80;;
8086;SDS011;4086;54.412;9.980;2022-11-25T14:53:46;14.53;;;9.17;;
8086;SDS011;4086;54.412;9.980;2022-11-25T14:56:14;17.17;;;9.83;;
8086;SDS011;4086;54.412;9.980;2022-11-25T14:58:44;15.33;;;9.97;;
8086;SDS011;4086;54.412;9.980;2022-11-25T15:01:15;12.70;;;9.10;;
8086;SDS011;4086;54.412;9.980;2022-11-25T15:03:45;15.87;;;10.20;;
8086;SDS011;4086;54.412;9.980;2022-11-25T15:06:13;13.90;;;9.63;;
8086;SDS011;4086;54.412;9.980;2022-11-25T15:08:41;15.43;;;10.27;;
8086;SDS011;4086;54.412;9.980;2022-11-25T15:11:11;15.67;;;10.37;;
8086;SDS011;4086;54.412;9.980;2022-11-25T15:13:39;13.33;;;8.90;;
8086;SDS011;4086;54.412;9.980;2022-11-25T15:16:09;14.90;;;9.93;;